sensor_id;sensor_type;location;lat;lon;timestamp;temperature;humidity
2955;DHT22;1487;51.470;6.938;2023-12-28T00:00:06;7.80;99.90
2955;DHT22;1487;51.470;6.938;2023-12-28T00:02:34;7.80;99.90
2955;DHT22;1487;51.470;6.938;2023-12-28T00:05:01;7.90;99.90
2955;DHT22;1487;51.470;6.938;2023-12-28T00:07:28;7.90;99.90
2955;DHT22;1487;51.470;6.938;2023-12-28T00:09:55;8.00;99.90
2955;DHT22;1487;51.470;6.938;2023-12-28T00:12:22;8.00;99.90
2955;DHT22;1487;51.470;6.938;2023-12-28T00:14:49;8.10;99.90
2955;DHT22;1487;51.470;6.938;2023-12-28T00:17:15;8.10;99.90
2955;DHT22;1487;51.470;6.938;2023-12-28T00:19:43;8.10;99.90
2955;DHT22;1487;51.470;6.938;2023-12-28T00:22:10;8.20;99.90
2955;DHT22;1487;51.470;6.938;2023-12-28T00:24:37;8.20;99.90
2955;DHT22;1487;51.470;6.938;2023-12-28T00:27:04;8.30;99.90
2955;DHT22;1487;51.470;6.938;2023-12-28T00:29:31;8.30;99.90
2955;DHT22;1487;51.470;6.938;2023-12-28T00:31:59;8.30;99.90
2955;DHT22;1487;51.470;6.938;2023-12-28T00:34:26;8.40;99.90
2955;DHT22;1487;51.470;6.938;2023-12-28T00:36:54;8.40;99.90
2955;DHT22;1487;51.470;6.938;2023-12-28T00:39:20;8.50;99.90
2955;DHT22;1487;51.470;6.938;2023-12-28T00:41:47;8.50;99.90
2955;DHT22;1487;51.470;6.938;2023-12-28T00:44:14;8.50;99.90
2955;DHT22;1487;51.470;6.938;2023-12-28T00:46:40;8.50;99.90
2955;DHT22;1487;51.470;6.938;2023-12-28T00:49:07;8.60;99.90
2955;DHT22;1487;51.470;6.938;2023-12-28T00:51:34;8.70;99.90
2955;DHT22;1487;51.470;6.938;2023-12-28T00:54:03;8.70;99.90
2955;DHT22;1487;51.470;6.938;2023-12-28T00:56:30;8.70;99.90
2955;DHT22;1487;51.470;6.938;2023-12-28T00:58:57;8.70;99.90
2955;DHT22;1487;51.470;6.938;2023-12-28T01:01:23;8.70;99.90
2955;DHT22;1487;51.470;6.938;2023-12-28T01:03:50;8.80;99.90
2955;DHT22;1487;51.470;6.938;2023-12-28T01:06:17;8.90;99.90
2955;DHT22;1487;51.470;6.938;2023-12-28T01:08:44;8.90;99.90
2955;DHT22;1487;51.470;6.938;2023-12-28T01:11:12;8.90;99.90
2955;DHT22;1487;51.470;6.938;2023-12-28T01:13:39;9.00;99.90
2955;DHT22;1487;51.470;6.938;2023-12-28T01:16:06;9.00;99.90
2955;DHT22;1487;51.470;6.938;2023-12-28T01:18:33;9.00;99.90
2955;DHT22;1487;51.470;6.938;2023-12-28T01:20:59;9.10;99.90
2955;DHT22;1487;51.470;6.938;2023-12-28T01:23:26;9.10;99.90
2955;DHT22;1487;51.470;6.938;2023-12-28T01:25:55;9.10;99.90
2955;DHT22;1487;51.470;6.938;2023-12-28T01:28:23;9.20;99.90
2955;DHT22;1487;51.470;6.938;2023-12-28T01:30:50;9.20;99.90
2955;DHT22;1487;51.470;6.938;2023-12-28T01:33:16;9.20;99.90
2955;DHT22;1487;51.470;6.938;2023-12-28T01:35:43;9.20;99.90
2955;DHT22;1487;51.470;6.938;2023-12-28T01:38:10;9.30;99.90
2955;DHT22;1487;51.470;6.938;2023-12-28T01:40:37;9.30;99.90
2955;DHT22;1487;51.470;6.938;2023-12-28T01:43:03;9.30;99.90
2955;DHT22;1487;51.470;6.938;2023-12-28T01:45:31;9.30;99.90
2955;DHT22;1487;51.470;6.938;2023-12-28T01:47:58;9.30;99.90
2955;DHT22;1487;51.470;6.938;2023-12-28T01:50:26;9.30;99.90
2955;DHT22;1487;51.470;6.938;2023-12-28T01:52:54;9.30;99.90
2955;DHT22;1487;51.470;6.938;2023-12-28T01:55:22;9.30;99.90
2955;DHT22;1487;51.470;6.938;2023-12-28T01:57:49;9.30;99.90
2955;DHT22;1487;51.470;6.938;2023-12-28T02:00:16;9.40;99.90
2955;DHT22;1487;51.470;6.938;2023-12-28T02:02:44;9.40;99.90
2955;DHT22;1487;51.470;6.938;2023-12-28T02:05:11;9.40;99.90
2955;DHT22;1487;51.470;6.938;2023-12-28T02:07:38;9.40;99.90
2955;DHT22;1487;51.470;6.938;2023-12-28T02:10:06;9.40;99.90
2955;DHT22;1487;51.470;6.938;2023-12-28T02:12:33;9.40;99.90
2955;DHT22;1487;51.470;6.938;2023-12-28T02:15:00;9.40;99.90
2955;DHT22;1487;51.470;6.938;2023-12-28T02:17:30;9.50;99.90
2955;DHT22;1487;51.470;6.938;2023-12-28T02:20:02;9.40;99.90
2955;DHT22;1487;51.470;6.938;2023-12-28T02:22:31;9.50;99.90
2955;DHT22;1487;51.470;6.938;2023-12-28T02:25:09;9.50;99.90
2955;DHT22;1487;51.470;6.938;2023-12-28T02:27:39;9.50;99.90
2955;DHT22;1487;51.470;6.938;2023-12-28T02:30:08;9.50;99.90
2955;DHT22;1487;51.470;6.938;2023-12-28T02:32:43;9.50;99.90
2955;DHT22;1487;51.470;6.938;2023-12-28T02:35:16;9.50;99.90
2955;DHT22;1487;51.470;6.938;2023-12-28T02:37:44;9.50;99.90
2955;DHT22;1487;51.470;6.938;2023-12-28T02:40:15;9.50;99.90
2955;DHT22;1487;51.470;6.938;2023-12-28T02:42:43;9.40;99.90
2955;DHT22;1487;51.470;6.938;2023-12-28T02:45:10;9.50;99.90
2955;DHT22;1487;51.470;6.938;2023-12-28T02:47:37;9.40;99.90
2955;DHT22;1487;51.470;6.938;2023-12-28T02:50:05;9.40;99.90
2955;DHT22;1487;51.470;6.938;2023-12-28T02:52:32;9.40;99.90
2955;DHT22;1487;51.470;6.938;2023-12-28T02:54:58;9.30;99.90
2955;DHT22;1487;51.470;6.938;2023-12-28T02:57:26;9.30;99.90
2955;DHT22;1487;51.470;6.938;2023-12-28T02:59:53;9.30;99.90
2955;DHT22;1487;51.470;6.938;2023-12-28T03:02:22;9.30;99.90
2955;DHT22;1487;51.470;6.938;2023-12-28T03:04:49;9.30;99.90
2955;DHT22;1487;51.470;6.938;2023-12-28T03:07:15;9.30;99.90
2955;DHT22;1487;51.470;6.938;2023-12-28T03:09:42;9.30;99.90
2955;DHT22;1487;51.470;6.938;2023-12-28T03:12:09;9.30;99.90
2955;DHT22;1487;51.470;6.938;2023-12-28T03:14:37;9.30;99.90
2955;DHT22;1487;51.470;6.938;2023-12-28T03:17:04;9.40;99.90
2955;DHT22;1487;51.470;6.938;2023-12-28T03:19:30;9.40;99.90
2955;DHT22;1487;51.470;6.938;2023-12-28T03:21:57;9.40;99.90
2955;DHT22;1487;51.470;6.938;2023-12-28T03:24:24;9.40;99.90
2955;DHT22;1487;51.470;6.938;2023-12-28T03:26:50;9.40;99.90
2955;DHT22;1487;51.470;6.938;2023-12-28T03:29:17;9.50;99.90
2955;DHT22;1487;51.470;6.938;2023-12-28T03:31:45;9.40;99.90
2955;DHT22;1487;51.470;6.938;2023-12-28T03:34:12;9.40;99.90
2955;DHT22;1487;51.470;6.938;2023-12-28T03:36:39;9.50;99.90
2955;DHT22;1487;51.470;6.938;2023-12-28T03:39:05;9.40;99.90
2955;DHT22;1487;51.470;6.938;2023-12-28T03:41:32;9.50;99.90
2955;DHT22;1487;51.470;6.938;2023-12-28T03:43:59;9.50;99.90
2955;DHT22;1487;51.470;6.938;2023-12-28T03:46:26;9.50;99.90
2955;DHT22;1487;51.470;6.938;2023-12-28T03:48:54;9.50;99.90
2955;DHT22;1487;51.470;6.938;2023-12-28T03:51:21;9.50;99.90
2955;DHT22;1487;51.470;6.938;2023-12-28T03:53:47;9.60;99.90
2955;DHT22;1487;51.470;6.938;2023-12-28T03:56:21;9.60;99.90
2955;DHT22;1487;51.470;6.938;2023-12-28T03:58:49;9.50;99.90
2955;DHT22;1487;51.470;6.938;2023-12-28T04:01:16;9.60;99.90
2955;DHT22;1487;51.470;6.938;2023-12-28T04:03:43;9.60;99.90
2955;DHT22;1487;51.470;6.938;2023-12-28T04:06:12;9.60;99.90
2955;DHT22;1487;51.470;6.938;2023-12-28T04:08:39;9.60;99.90
2955;DHT22;1487;51.470;6.938;2023-12-28T04:11:05;9.60;99.90
2955;DHT22;1487;51.470;6.938;2023-12-28T04:13:32;9.60;99.90
2955;DHT22;1487;51.470;6.938;2023-12-28T04:15:59;9.60;99.90
2955;DHT22;1487;51.470;6.938;2023-12-28T04:18:26;9.60;99.90
2955;DHT22;1487;51.470;6.938;2023-12-28T04:20:53;9.60;99.90
2955;DHT22;1487;51.470;6.938;2023-12-28T04:23:21;9.60;99.90
2955;DHT22;1487;51.470;6.938;2023-12-28T04:25:48;9.60;99.90
2955;DHT22;1487;51.470;6.938;2023-12-28T04:28:14;9.60;99.90
2955;DHT22;1487;51.470;6.938;2023-12-28T04:30:41;9.60;99.90
2955;DHT22;1487;51.470;6.938;2023-12-28T04:33:08;9.60;99.90
2955;DHT22;1487;51.470;6.938;2023-12-28T04:35:35;9.60;99.90
2955;DHT22;1487;51.470;6.938;2023-12-28T04:38:01;9.70;99.90
2955;DHT22;1487;51.470;6.938;2023-12-28T04:40:30;9.70;99.90
2955;DHT22;1487;51.470;6.938;2023-12-28T04:42:59;9.70;99.90
2955;DHT22;1487;51.470;6.938;2023-12-28T04:45:25;9.70;99.90
2955;DHT22;1487;51.470;6.938;2023-12-28T04:47:53;9.70;99.90
2955;DHT22;1487;51.470;6.938;2023-12-28T04:50:19;9.80;99.90
2955;DHT22;1487;51.470;6.938;2023-12-28T04:52:46;9.80;99.90
2955;DHT22;1487;51.470;6.938;2023-12-28T04:55:13;9.70;99.90
2955;DHT22;1487;51.470;6.938;2023-12-28T04:57:42;9.80;99.90
2955;DHT22;1487;51.470;6.938;2023-12-28T05:00:09;9.80;99.90
2955;DHT22;1487;51.470;6.938;2023-12-28T05:02:36;9.80;99.90
2955;DHT22;1487;51.470;6.938;2023-12-28T05:05:03;9.80;99.90
2955;DHT22;1487;51.470;6.938;2023-12-28T05:07:30;9.80;99.90
2955;DHT22;1487;51.470;6.938;2023-12-28T05:09:57;9.90;99.90
2955;DHT22;1487;51.470;6.938;2023-12-28T05:12:23;9.80;99.90
2955;DHT22;1487;51.470;6.938;2023-12-28T05:14:52;9.90;99.90
2955;DHT22;1487;51.470;6.938;2023-12-28T05:17:18;9.90;99.90
2955;DHT22;1487;51.470;6.938;2023-12-28T05:19:45;9.90;99.90
2955;DHT22;1487;51.470;6.938;2023-12-28T05:22:12;10.00;99.90
2955;DHT22;1487;51.470;6.938;2023-12-28T05:24:39;10.00;99.90
2955;DHT22;1487;51.470;6.938;2023-12-28T05:27:06;10.00;99.90
2955;DHT22;1487;51.470;6.938;2023-12-28T05:29:32;10.00;99.90
2955;DHT22;1487;51.470;6.938;2023-12-28T05:32:00;10.00;99.90
2955;DHT22;1487;51.470;6.938;2023-12-28T05:34:27;10.10;99.90
2955;DHT22;1487;51.470;6.938;2023-12-28T05:36:54;10.10;99.90
2955;DHT22;1487;51.470;6.938;2023-12-28T05:39:20;10.10;99.90
2955;DHT22;1487;51.470;6.938;2023-12-28T05:41:47;10.10;99.90
2955;DHT22;1487;51.470;6.938;2023-12-28T05:44:16;10.10;99.90
2955;DHT22;1487;51.470;6.938;2023-12-28T05:46:42;10.10;99.90
2955;DHT22;1487;51.470;6.938;2023-12-28T05:49:11;10.10;99.90
2955;DHT22;1487;51.470;6.938;2023-12-28T05:51:38;10.10;99.90
2955;DHT22;1487;51.470;6.938;2023-12-28T05:54:06;10.10;99.90
2955;DHT22;1487;51.470;6.938;2023-12-28T05:56:33;10.10;99.90
2955;DHT22;1487;51.470;6.938;2023-12-28T05:59:00;10.10;99.90
2955;DHT22;1487;51.470;6.938;2023-12-28T06:01:26;10.10;99.90
2955;DHT22;1487;51.470;6.938;2023-12-28T06:03:53;10.10;99.90
2955;DHT22;1487;51.470;6.938;2023-12-28T06:06:21;10.10;99.90
2955;DHT22;1487;51.470;6.938;2023-12-28T06:08:48;10.10;99.90
2955;DHT22;1487;51.470;6.938;2023-12-28T06:11:15;10.10;99.90
2955;DHT22;1487;51.470;6.938;2023-12-28T06:13:42;10.10;99.90
2955;DHT22;1487;51.470;6.938;2023-12-28T06:16:09;10.10;99.90
2955;DHT22;1487;51.470;6.938;2023-12-28T06:18:36;10.10;99.90
2955;DHT22;1487;51.470;6.938;2023-12-28T06:21:02;10.10;99.90
2955;DHT22;1487;51.470;6.938;2023-12-28T06:23:33;10.10;99.90
2955;DHT22;1487;51.470;6.938;2023-12-28T06:26:04;10.10;99.90
2955;DHT22;1487;51.470;6.938;2023-12-28T06:28:32;10.10;99.90
2955;DHT22;1487;51.470;6.938;2023-12-28T06:30:59;10.10;99.90
2955;DHT22;1487;51.470;6.938;2023-12-28T06:33:26;10.10;99.90
2955;DHT22;1487;51.470;6.938;2023-12-28T06:35:53;10.10;99.90
2955;DHT22;1487;51.470;6.938;2023-12-28T06:38:20;10.10;99.90
2955;DHT22;1487;51.470;6.938;2023-12-28T06:40:48;10.10;99.90
2955;DHT22;1487;51.470;6.938;2023-12-28T06:43:15;10.10;99.90
2955;DHT22;1487;51.470;6.938;2023-12-28T06:45:42;10.10;99.90
2955;DHT22;1487;51.470;6.938;2023-12-28T06:48:08;10.10;99.90
2955;DHT22;1487;51.470;6.938;2023-12-28T06:50:35;10.00;99.90
2955;DHT22;1487;51.470;6.938;2023-12-28T06:53:02;10.10;99.90
2955;DHT22;1487;51.470;6.938;2023-12-28T06:55:29;10.00;99.90
2955;DHT22;1487;51.470;6.938;2023-12-28T06:57:57;10.00;99.90
2955;DHT22;1487;51.470;6.938;2023-12-28T07:00:24;10.00;99.90
2955;DHT22;1487;51.470;6.938;2023-12-28T07:02:51;10.10;99.90
2955;DHT22;1487;51.470;6.938;2023-12-28T07:05:17;10.10;99.90
2955;DHT22;1487;51.470;6.938;2023-12-28T07:07:44;10.10;99.90
2955;DHT22;1487;51.470;6.938;2023-12-28T07:10:11;10.10;99.90
2955;DHT22;1487;51.470;6.938;2023-12-28T07:12:38;10.10;99.90
2955;DHT22;1487;51.470;6.938;2023-12-28T07:15:07;10.10;99.90
2955;DHT22;1487;51.470;6.938;2023-12-28T07:17:36;10.00;99.90
2955;DHT22;1487;51.470;6.938;2023-12-28T07:20:05;10.00;99.90
2955;DHT22;1487;51.470;6.938;2023-12-28T07:22:34;10.10;99.90
2955;DHT22;1487;51.470;6.938;2023-12-28T07:25:01;10.00;99.90
2955;DHT22;1487;51.470;6.938;2023-12-28T07:27:28;10.00;99.90
2955;DHT22;1487;51.470;6.938;2023-12-28T07:29:55;10.10;99.90
2955;DHT22;1487;51.470;6.938;2023-12-28T07:32:23;10.10;99.90
2955;DHT22;1487;51.470;6.938;2023-12-28T07:34:51;10.10;99.90
2955;DHT22;1487;51.470;6.938;2023-12-28T07:37:18;10.10;99.90
2955;DHT22;1487;51.470;6.938;2023-12-28T07:39:45;10.20;99.90
2955;DHT22;1487;51.470;6.938;2023-12-28T07:42:11;10.20;99.90
2955;DHT22;1487;51.470;6.938;2023-12-28T07:44:39;10.20;99.90
2955;DHT22;1487;51.470;6.938;2023-12-28T07:47:05;10.20;99.90
2955;DHT22;1487;51.470;6.938;2023-12-28T07:49:34;10.20;99.90
2955;DHT22;1487;51.470;6.938;2023-12-28T07:52:00;10.20;99.90
2955;DHT22;1487;51.470;6.938;2023-12-28T07:54:28;10.30;99.90
2955;DHT22;1487;51.470;6.938;2023-12-28T07:56:55;10.30;99.90
2955;DHT22;1487;51.470;6.938;2023-12-28T07:59:21;10.30;99.90
2955;DHT22;1487;51.470;6.938;2023-12-28T08:01:48;10.30;99.90
2955;DHT22;1487;51.470;6.938;2023-12-28T08:04:15;10.30;99.90
2955;DHT22;1487;51.470;6.938;2023-12-28T08:06:43;10.20;99.90
2955;DHT22;1487;51.470;6.938;2023-12-28T08:09:10;10.20;99.90
2955;DHT22;1487;51.470;6.938;2023-12-28T08:11:36;10.20;99.90
2955;DHT22;1487;51.470;6.938;2023-12-28T08:14:03;10.30;99.90
2955;DHT22;1487;51.470;6.938;2023-12-28T08:16:30;10.20;99.90
2955;DHT22;1487;51.470;6.938;2023-12-28T08:18:57;10.30;99.90
2955;DHT22;1487;51.470;6.938;2023-12-28T08:21:24;10.30;99.90
2955;DHT22;1487;51.470;6.938;2023-12-28T08:23:52;10.30;99.90
2955;DHT22;1487;51.470;6.938;2023-12-28T08:26:19;10.30;99.90
2955;DHT22;1487;51.470;6.938;2023-12-28T08:28:46;10.30;99.90
2955;DHT22;1487;51.470;6.938;2023-12-28T08:31:13;10.30;99.90
2955;DHT22;1487;51.470;6.938;2023-12-28T08:33:40;10.40;99.90
2955;DHT22;1487;51.470;6.938;2023-12-28T08:36:08;10.30;99.90
2955;DHT22;1487;51.470;6.938;2023-12-28T08:38:35;10.30;99.90
2955;DHT22;1487;51.470;6.938;2023-12-28T08:41:04;10.30;99.90
2955;DHT22;1487;51.470;6.938;2023-12-28T08:43:34;10.40;99.90
2955;DHT22;1487;51.470;6.938;2023-12-28T08:46:01;10.40;99.90
2955;DHT22;1487;51.470;6.938;2023-12-28T08:48:28;10.40;99.90
2955;DHT22;1487;51.470;6.938;2023-12-28T08:50:55;10.40;99.90
2955;DHT22;1487;51.470;6.938;2023-12-28T08:53:21;10.40;99.90
2955;DHT22;1487;51.470;6.938;2023-12-28T08:55:48;10.40;99.90
2955;DHT22;1487;51.470;6.938;2023-12-28T08:58:16;10.50;99.90
2955;DHT22;1487;51.470;6.938;2023-12-28T09:00:43;10.40;99.90
2955;DHT22;1487;51.470;6.938;2023-12-28T09:03:10;10.40;99.90
2955;DHT22;1487;51.470;6.938;2023-12-28T09:05:37;10.40;99.90
2955;DHT22;1487;51.470;6.938;2023-12-28T09:08:05;10.50;99.90
2955;DHT22;1487;51.470;6.938;2023-12-28T09:10:32;10.50;99.90
2955;DHT22;1487;51.470;6.938;2023-12-28T09:12:58;10.50;99.90
2955;DHT22;1487;51.470;6.938;2023-12-28T09:15:26;10.50;99.90
2955;DHT22;1487;51.470;6.938;2023-12-28T09:17:53;10.50;99.90
2955;DHT22;1487;51.470;6.938;2023-12-28T09:20:21;10.40;99.90
2955;DHT22;1487;51.470;6.938;2023-12-28T09:22:48;10.50;99.90
2955;DHT22;1487;51.470;6.938;2023-12-28T09:25:18;10.50;99.90
2955;DHT22;1487;51.470;6.938;2023-12-28T09:27:45;10.50;99.90
2955;DHT22;1487;51.470;6.938;2023-12-28T09:30:13;10.50;99.90
2955;DHT22;1487;51.470;6.938;2023-12-28T09:32:41;10.50;99.90
2955;DHT22;1487;51.470;6.938;2023-12-28T09:35:08;10.50;99.90
2955;DHT22;1487;51.470;6.938;2023-12-28T09:37:35;10.60;99.90
2955;DHT22;1487;51.470;6.938;2023-12-28T09:40:02;10.70;99.90
2955;DHT22;1487;51.470;6.938;2023-12-28T09:42:32;10.70;99.90
2955;DHT22;1487;51.470;6.938;2023-12-28T09:45:04;10.70;99.90
2955;DHT22;1487;51.470;6.938;2023-12-28T09:47:32;10.70;99.90
2955;DHT22;1487;51.470;6.938;2023-12-28T09:50:00;10.70;99.90
2955;DHT22;1487;51.470;6.938;2023-12-28T09:52:27;10.70;99.90
2955;DHT22;1487;51.470;6.938;2023-12-28T09:54:54;10.70;99.90
2955;DHT22;1487;51.470;6.938;2023-12-28T09:57:20;10.70;99.90
2955;DHT22;1487;51.470;6.938;2023-12-28T09:59:49;10.70;99.90
2955;DHT22;1487;51.470;6.938;2023-12-28T10:02:16;10.70;99.90
2955;DHT22;1487;51.470;6.938;2023-12-28T10:04:43;10.70;99.90
2955;DHT22;1487;51.470;6.938;2023-12-28T10:07:11;10.70;99.90
2955;DHT22;1487;51.470;6.938;2023-12-28T10:09:38;10.80;99.90
2955;DHT22;1487;51.470;6.938;2023-12-28T10:12:06;10.70;99.90
2955;DHT22;1487;51.470;6.938;2023-12-28T10:14:33;10.70;99.90
2955;DHT22;1487;51.470;6.938;2023-12-28T10:16:59;10.70;99.90
2955;DHT22;1487;51.470;6.938;2023-12-28T10:19:27;10.70;99.90
2955;DHT22;1487;51.470;6.938;2023-12-28T10:21:54;10.70;99.90
2955;DHT22;1487;51.470;6.938;2023-12-28T10:24:23;10.70;99.90
2955;DHT22;1487;51.470;6.938;2023-12-28T10:26:50;10.70;99.90
2955;DHT22;1487;51.470;6.938;2023-12-28T10:29:17;10.70;99.90
2955;DHT22;1487;51.470;6.938;2023-12-28T10:31:44;10.70;99.90
2955;DHT22;1487;51.470;6.938;2023-12-28T10:34:14;10.80;99.90
2955;DHT22;1487;51.470;6.938;2023-12-28T10:36:41;10.70;99.90
2955;DHT22;1487;51.470;6.938;2023-12-28T10:39:09;10.80;99.90
2955;DHT22;1487;51.470;6.938;2023-12-28T10:41:41;10.80;99.90
2955;DHT22;1487;51.470;6.938;2023-12-28T10:44:11;10.80;99.90
2955;DHT22;1487;51.470;6.938;2023-12-28T10:46:40;10.80;99.90
2955;DHT22;1487;51.470;6.938;2023-12-28T10:49:10;10.80;99.90
2955;DHT22;1487;51.470;6.938;2023-12-28T10:51:41;10.80;99.90
2955;DHT22;1487;51.470;6.938;2023-12-28T10:54:18;10.80;99.90
2955;DHT22;1487;51.470;6.938;2023-12-28T10:56:58;10.80;99.90
2955;DHT22;1487;51.470;6.938;2023-12-28T10:59:32;10.80;99.90
2955;DHT22;1487;51.470;6.938;2023-12-28T11:02:03;10.90;99.90
2955;DHT22;1487;51.470;6.938;2023-12-28T11:04:37;10.90;99.90
2955;DHT22;1487;51.470;6.938;2023-12-28T11:07:07;10.90;99.90
2955;DHT22;1487;51.470;6.938;2023-12-28T11:09:36;11.00;99.90
2955;DHT22;1487;51.470;6.938;2023-12-28T11:12:07;11.00;99.90
2955;DHT22;1487;51.470;6.938;2023-12-28T11:14:36;11.10;99.90
2955;DHT22;1487;51.470;6.938;2023-12-28T11:17:05;11.10;99.90
2955;DHT22;1487;51.470;6.938;2023-12-28T11:19:33;11.20;99.90
2955;DHT22;1487;51.470;6.938;2023-12-28T11:22:01;11.20;99.90
2955;DHT22;1487;51.470;6.938;2023-12-28T11:24:29;11.20;99.90
2955;DHT22;1487;51.470;6.938;2023-12-28T11:26:57;11.20;99.90
2955;DHT22;1487;51.470;6.938;2023-12-28T11:29:25;11.20;99.90
2955;DHT22;1487;51.470;6.938;2023-12-28T11:31:52;11.30;99.90
2955;DHT22;1487;51.470;6.938;2023-12-28T11:34:24;11.20;99.90
2955;DHT22;1487;51.470;6.938;2023-12-28T11:36:53;11.30;99.90
2955;DHT22;1487;51.470;6.938;2023-12-28T11:39:30;11.30;99.90
2955;DHT22;1487;51.470;6.938;2023-12-28T11:42:03;11.30;99.90
2955;DHT22;1487;51.470;6.938;2023-12-28T11:44:36;11.30;99.90
2955;DHT22;1487;51.470;6.938;2023-12-28T11:47:11;11.30;99.90
2955;DHT22;1487;51.470;6.938;2023-12-28T11:49:38;11.30;99.90
2955;DHT22;1487;51.470;6.938;2023-12-28T11:52:06;11.30;99.90
2955;DHT22;1487;51.470;6.938;2023-12-28T11:54:33;11.40;99.90
2955;DHT22;1487;51.470;6.938;2023-12-28T11:57:00;11.40;99.90
2955;DHT22;1487;51.470;6.938;2023-12-28T11:59:27;11.40;99.90
2955;DHT22;1487;51.470;6.938;2023-12-28T12:01:55;11.40;99.90
2955;DHT22;1487;51.470;6.938;2023-12-28T12:04:22;11.40;99.90
2955;DHT22;1487;51.470;6.938;2023-12-28T12:06:48;11.40;99.90
2955;DHT22;1487;51.470;6.938;2023-12-28T12:09:16;11.50;99.90
2955;DHT22;1487;51.470;6.938;2023-12-28T12:11:43;11.40;99.90
2955;DHT22;1487;51.470;6.938;2023-12-28T12:14:11;11.40;99.90
2955;DHT22;1487;51.470;6.938;2023-12-28T12:16:38;11.50;99.90
2955;DHT22;1487;51.470;6.938;2023-12-28T12:19:06;11.50;99.90
2955;DHT22;1487;51.470;6.938;2023-12-28T12:21:33;11.50;99.90
2955;DHT22;1487;51.470;6.938;2023-12-28T12:24:00;11.40;99.90
2955;DHT22;1487;51.470;6.938;2023-12-28T12:26:28;11.40;99.90
2955;DHT22;1487;51.470;6.938;2023-12-28T12:28:56;11.40;99.90
2955;DHT22;1487;51.470;6.938;2023-12-28T12:31:24;11.40;99.90
2955;DHT22;1487;51.470;6.938;2023-12-28T12:33:51;11.40;99.90
2955;DHT22;1487;51.470;6.938;2023-12-28T12:36:20;11.40;99.90
2955;DHT22;1487;51.470;6.938;2023-12-28T12:38:47;11.50;99.90
2955;DHT22;1487;51.470;6.938;2023-12-28T12:41:14;11.50;99.90
2955;DHT22;1487;51.470;6.938;2023-12-28T12:43:41;11.60;99.90
2955;DHT22;1487;51.470;6.938;2023-12-28T12:46:08;11.70;99.90
2955;DHT22;1487;51.470;6.938;2023-12-28T12:48:35;11.70;99.90
2955;DHT22;1487;51.470;6.938;2023-12-28T12:51:02;11.70;99.90
2955;DHT22;1487;51.470;6.938;2023-12-28T12:53:34;11.70;99.90
2955;DHT22;1487;51.470;6.938;2023-12-28T12:56:03;11.60;99.90
2955;DHT22;1487;51.470;6.938;2023-12-28T12:58:30;11.50;99.90
2955;DHT22;1487;51.470;6.938;2023-12-28T13:00:57;11.50;99.90
2955;DHT22;1487;51.470;6.938;2023-12-28T13:03:27;11.50;99.90
2955;DHT22;1487;51.470;6.938;2023-12-28T13:05:55;11.50;99.90
2955;DHT22;1487;51.470;6.938;2023-12-28T13:08:22;11.50;99.90
2955;DHT22;1487;51.470;6.938;2023-12-28T13:10:50;11.40;99.90
2955;DHT22;1487;51.470;6.938;2023-12-28T13:13:18;11.40;99.90
2955;DHT22;1487;51.470;6.938;2023-12-28T13:15:45;11.40;99.90
2955;DHT22;1487;51.470;6.938;2023-12-28T13:18:12;11.40;99.90
2955;DHT22;1487;51.470;6.938;2023-12-28T13:20:38;11.40;99.90
2955;DHT22;1487;51.470;6.938;2023-12-28T13:23:05;11.50;99.90
2955;DHT22;1487;51.470;6.938;2023-12-28T13:25:32;11.50;99.90
2955;DHT22;1487;51.470;6.938;2023-12-28T13:28:00;11.40;99.90
2955;DHT22;1487;51.470;6.938;2023-12-28T13:30:27;11.50;99.90
2955;DHT22;1487;51.470;6.938;2023-12-28T13:32:54;11.50;99.90
2955;DHT22;1487;51.470;6.938;2023-12-28T13:35:22;11.50;99.90
2955;DHT22;1487;51.470;6.938;2023-12-28T13:37:48;11.50;99.90
2955;DHT22;1487;51.470;6.938;2023-12-28T13:40:15;11.50;99.90
2955;DHT22;1487;51.470;6.938;2023-12-28T13:42:42;11.50;99.90
2955;DHT22;1487;51.470;6.938;2023-12-28T13:45:10;11.50;99.90
2955;DHT22;1487;51.470;6.938;2023-12-28T13:47:37;11.50;99.90
2955;DHT22;1487;51.470;6.938;2023-12-28T13:50:05;11.40;99.90
2955;DHT22;1487;51.470;6.938;2023-12-28T13:52:32;11.40;99.90
2955;DHT22;1487;51.470;6.938;2023-12-28T13:54:59;11.40;99.90
2955;DHT22;1487;51.470;6.938;2023-12-28T13:57:26;11.40;99.90
2955;DHT22;1487;51.470;6.938;2023-12-28T13:59:52;11.40;99.90
2955;DHT22;1487;51.470;6.938;2023-12-28T14:02:22;11.30;99.90
2955;DHT22;1487;51.470;6.938;2023-12-28T14:04:49;11.30;99.90
2955;DHT22;1487;51.470;6.938;2023-12-28T14:07:16;11.30;99.90
2955;DHT22;1487;51.470;6.938;2023-12-28T14:09:42;11.30;99.90
2955;DHT22;1487;51.470;6.938;2023-12-28T14:12:09;11.30;99.90
2955;DHT22;1487;51.470;6.938;2023-12-28T14:14:36;11.30;99.90
2955;DHT22;1487;51.470;6.938;2023-12-28T14:17:03;11.30;99.90
2955;DHT22;1487;51.470;6.938;2023-12-28T14:19:31;11.30;99.90
2955;DHT22;1487;51.470;6.938;2023-12-28T14:21:59;11.20;99.90
2955;DHT22;1487;51.470;6.938;2023-12-28T14:24:26;11.20;99.90
2955;DHT22;1487;51.470;6.938;2023-12-28T14:26:54;11.30;99.90
2955;DHT22;1487;51.470;6.938;2023-12-28T14:29:22;11.30;99.90
2955;DHT22;1487;51.470;6.938;2023-12-28T14:31:49;11.20;99.90
2955;DHT22;1487;51.470;6.938;2023-12-28T14:34:17;11.20;99.90
2955;DHT22;1487;51.470;6.938;2023-12-28T14:36:46;11.20;99.90
2955;DHT22;1487;51.470;6.938;2023-12-28T14:39:15;11.20;99.90
2955;DHT22;1487;51.470;6.938;2023-12-28T14:41:43;11.20;99.90
2955;DHT22;1487;51.470;6.938;2023-12-28T14:44:10;11.20;99.90
2955;DHT22;1487;51.470;6.938;2023-12-28T14:46:37;11.20;99.90
2955;DHT22;1487;51.470;6.938;2023-12-28T14:49:04;11.20;99.90
2955;DHT22;1487;51.470;6.938;2023-12-28T14:51:31;11.20;99.90
2955;DHT22;1487;51.470;6.938;2023-12-28T14:53:59;11.20;99.90
2955;DHT22;1487;51.470;6.938;2023-12-28T14:56:26;11.20;99.90
2955;DHT22;1487;51.470;6.938;2023-12-28T14:58:53;11.10;99.90
2955;DHT22;1487;51.470;6.938;2023-12-28T15:01:19;11.10;99.90
2955;DHT22;1487;51.470;6.938;2023-12-28T15:03:47;11.10;99.90
2955;DHT22;1487;51.470;6.938;2023-12-28T15:06:13;11.10;99.90
2955;DHT22;1487;51.470;6.938;2023-12-28T15:08:41;11.10;99.90
2955;DHT22;1487;51.470;6.938;2023-12-28T15:11:10;11.10;99.90
2955;DHT22;1487;51.470;6.938;2023-12-28T15:13:37;11.10;99.90
2955;DHT22;1487;51.470;6.938;2023-12-28T15:16:05;11.10;99.90
2955;DHT22;1487;51.470;6.938;2023-12-28T15:18:33;11.00;99.90
2955;DHT22;1487;51.470;6.938;2023-12-28T15:21:00;11.00;99.90
2955;DHT22;1487;51.470;6.938;2023-12-28T15:23:27;11.00;99.90
2955;DHT22;1487;51.470;6.938;2023-12-28T15:25:55;10.90;99.90
2955;DHT22;1487;51.470;6.938;2023-12-28T15:28:23;10.90;99.90
2955;DHT22;1487;51.470;6.938;2023-12-28T15:30:49;10.90;99.90
2955;DHT22;1487;51.470;6.938;2023-12-28T15:33:16;10.90;99.90
2955;DHT22;1487;51.470;6.938;2023-12-28T15:35:43;10.80;99.90
2955;DHT22;1487;51.470;6.938;2023-12-28T15:38:10;10.90;99.90
2955;DHT22;1487;51.470;6.938;2023-12-28T15:40:36;10.90;99.90
2955;DHT22;1487;51.470;6.938;2023-12-28T15:43:03;10.80;99.90
2955;DHT22;1487;51.470;6.938;2023-12-28T15:45:31;10.90;99.90
2955;DHT22;1487;51.470;6.938;2023-12-28T15:48:00;10.90;99.90
2955;DHT22;1487;51.470;6.938;2023-12-28T15:50:26;10.90;99.90
2955;DHT22;1487;51.470;6.938;2023-12-28T15:52:53;10.90;99.90
2955;DHT22;1487;51.470;6.938;2023-12-28T15:55:21;10.90;99.90
2955;DHT22;1487;51.470;6.938;2023-12-28T15:57:48;10.80;99.90
2955;DHT22;1487;51.470;6.938;2023-12-28T16:00:16;10.80;99.90
2955;DHT22;1487;51.470;6.938;2023-12-28T16:02:44;10.80;99.90
2955;DHT22;1487;51.470;6.938;2023-12-28T16:05:11;10.80;99.90
2955;DHT22;1487;51.470;6.938;2023-12-28T16:07:39;10.80;99.90